Time,TemperatureF,DewpointF,PressureIn,WindDirection,WindDirectionDegrees,WindSpeedMPH,WindSpeedGustMPH,Humidity,HourlyPrecipIn,Conditions,Clouds,dailyrainin,SoftwareType,DateUTC
2013-04-25 00:00:00,63.0,56.7,29.96,NE,56,0.0,18.0,80,0.00,,---,0.00,VWS V13.01,2013-04-25 04:00:00,
2013-04-25 00:01:00,63.0,56.7,29.96,NE,56,0.0,18.0,80,0.00,,---,0.00,VWS V13.01,2013-04-25 04:01:00,
2013-04-25 00:06:00,62.6,56.3,29.96,NE,56,0.0,18.0,80,0.00,,---,0.00,VWS V13.01,2013-04-25 04:06:00,
2013-04-25 00:11:00,62.2,56.3,29.97,NE,56,0.0,18.0,81,0.00,,---,0.00,VWS V13.01,2013-04-25 04:11:00,
2013-04-25 00:16:00,61.9,56.3,29.97,NE,56,0.0,18.0,82,0.00,,---,0.00,VWS V13.01,2013-04-25 04:16:00,
2013-04-25 00:21:00,61.7,56.2,29.97,NE,56,0.0,18.0,82,0.00,,---,0.00,VWS V13.01,2013-04-25 04:21:00,
2013-04-25 00:26:00,61.4,55.9,29.97,NE,56,0.0,18.0,82,0.00,,---,0.00,VWS V13.01,2013-04-25 04:26:00,
2013-04-25 00:31:00,61.1,55.9,29.97,NE,56,0.0,18.0,83,0.00,,---,0.00,VWS V13.01,2013-04-25 04:31:00,
2013-04-25 00:36:00,60.8,55.9,29.97,NE,56,0.0,18.0,84,0.00,,---,0.00,VWS V13.01,2013-04-25 04:36:00,
2013-04-25 00:41:00,60.7,55.8,29.97,NE,37,0.0,18.0,84,0.00,,---,0.00,VWS V13.01,2013-04-25 04:41:00,
2013-04-25 00:46:00,60.4,55.5,29.97,NE,37,0.0,18.0,84,0.00,,---,0.00,VWS V13.01,2013-04-25 04:46:00,
2013-04-25 00:51:00,60.3,55.5,29.97,North,5,0.0,18.0,84,0.00,,---,0.00,VWS V13.01,2013-04-25 04:51:00,
2013-04-25 00:56:00,60.2,55.7,29.97,North,5,0.0,18.0,85,0.00,,---,0.00,VWS V13.01,2013-04-25 04:56:00,
2013-04-25 01:01:00,60.5,56.0,29.97,NNE,15,0.0,18.0,85,0.00,,---,0.00,VWS V13.01,2013-04-25 05:01:00,
2013-04-25 01:06:00,60.7,55.8,29.97,NNE,13,0.0,18.0,84,0.00,,---,0.00,VWS V13.01,2013-04-25 05:06:00,
2013-04-25 01:11:00,60.8,55.9,29.97,NNE,13,0.0,18.0,84,0.00,,---,0.00,VWS V13.01,2013-04-25 05:11:00,
2013-04-25 01:16:00,60.7,55.8,29.97,NNE,15,0.0,18.0,84,0.00,,---,0.00,VWS V13.01,2013-04-25 05:16:00,
2013-04-25 01:21:00,60.7,55.8,29.97,NNE,15,0.0,18.0,84,0.00,,---,0.00,VWS V13.01,2013-04-25 05:21:00,
2013-04-25 01:26:00,60.5,55.7,29.97,NNE,15,0.0,18.0,84,0.00,,---,0.00,VWS V13.01,2013-04-25 05:26:00,
2013-04-25 01:31:00,60.3,55.8,29.97,NNE,12,0.0,18.0,85,0.00,,---,0.00,VWS V13.01,2013-04-25 05:31:00,
2013-04-25 01:36:00,60.1,55.6,29.97,NNE,12,0.0,18.0,85,0.00,,---,0.00,VWS V13.01,2013-04-25 05:36:00,
2013-04-25 01:41:00,59.8,55.6,29.97,NNE,12,0.0,18.0,86,0.00,,---,0.00,VWS V13.01,2013-04-25 05:41:00,
2013-04-25 01:46:00,59.5,55.3,29.97,NNE,12,0.0,18.0,86,0.00,,---,0.00,VWS V13.01,2013-04-25 05:46:00,
2013-04-25 01:51:00,59.2,55.3,29.97,NNE,12,0.0,18.0,87,0.00,,---,0.00,VWS V13.01,2013-04-25 05:51:00,
2013-04-25 01:56:00,59.0,55.5,29.98,NNE,12,0.0,18.0,88,0.00,,---,0.00,VWS V13.01,2013-04-25 05:56:00,
2013-04-25 02:01:00,58.8,55.3,29.98,NNE,12,0.0,18.0,88,0.00,,---,0.00,VWS V13.01,2013-04-25 06:01:00,
2013-04-25 02:06:00,58.7,55.5,29.98,NNE,12,0.0,18.0,89,0.00,,---,0.00,VWS V13.01,2013-04-25 06:06:00,
2013-04-25 02:11:00,58.7,55.5,29.98,North,11,0.0,18.0,89,0.00,,---,0.00,VWS V13.01,2013-04-25 06:11:00,
2013-04-25 02:16:00,59.3,56.4,29.98,NNW,333,0.0,18.0,90,0.00,,---,0.00,VWS V13.01,2013-04-25 06:16:00,
2013-04-25 02:21:00,59.8,56.6,29.98,NNW,333,0.0,18.0,89,0.00,,---,0.00,VWS V13.01,2013-04-25 06:21:00,
2013-04-25 02:26:00,60.1,56.5,29.99,NNW,333,0.0,18.0,88,0.00,,---,0.00,VWS V13.01,2013-04-25 06:26:00,
2013-04-25 02:31:00,60.6,56.7,29.99,NW,320,0.0,18.0,87,0.00,,---,0.00,VWS V13.01,2013-04-25 06:31:00,
2013-04-25 02:36:00,61.2,55.7,29.99,NW,305,2.0,18.0,82,0.00,,---,0.00,VWS V13.01,2013-04-25 06:36:00,
2013-04-25 02:41:00,61.8,55.6,30.00,NW,309,0.0,18.0,80,0.00,,---,0.00,VWS V13.01,2013-04-25 06:41:00,
2013-04-25 02:46:00,62.0,55.1,30.00,NW,304,0.0,18.0,78,0.00,,---,0.00,VWS V13.01,2013-04-25 06:46:00,
2013-04-25 02:51:00,62.0,54.7,30.00,WNW,294,0.0,18.0,77,0.00,,---,0.00,VWS V13.01,2013-04-25 06:51:00,
2013-04-25 02:56:00,61.9,54.3,30.00,WNW,301,0.0,18.0,76,0.00,,---,0.00,VWS V13.01,2013-04-25 06:56:00,
2013-04-25 03:01:00,61.8,54.2,30.00,NW,309,1.0,18.0,76,0.00,,---,0.00,VWS V13.01,2013-04-25 07:01:00,
2013-04-25 03:06:00,61.7,53.7,30.00,NW,315,2.0,18.0,75,0.00,,---,0.00,VWS V13.01,2013-04-25 07:06:00,
2013-04-25 03:11:00,61.5,53.5,30.00,West,260,0.0,18.0,75,0.00,,---,0.00,VWS V13.01,2013-04-25 07:11:00,
2013-04-25 03:16:00,61.2,53.2,30.00,WNW,297,2.0,18.0,75,0.00,,---,0.00,VWS V13.01,2013-04-25 07:16:00,
2013-04-25 03:21:00,60.9,51.5,30.00,WNW,297,0.0,18.0,71,0.00,,---,0.00,VWS V13.01,2013-04-25 07:21:00,
2013-04-25 03:26:00,60.7,50.5,30.02,West,280,0.0,18.0,69,0.00,,---,0.00,VWS V13.01,2013-04-25 07:26:00,
2013-04-25 03:31:00,60.4,50.6,30.02,West,279,1.0,18.0,70,0.00,,---,0.00,VWS V13.01,2013-04-25 07:31:00,
2013-04-25 03:36:00,60.2,50.0,30.02,WNW,299,0.0,18.0,69,0.00,,---,0.00,VWS V13.01,2013-04-25 07:36:00,
2013-04-25 03:41:00,60.1,50.3,30.03,WNW,290,1.0,18.0,70,0.00,,---,0.00,VWS V13.01,2013-04-25 07:41:00,
2013-04-25 03:46:00,59.9,49.7,30.03,WNW,298,0.0,18.0,69,0.00,,---,0.00,VWS V13.01,2013-04-25 07:46:00,
2013-04-25 03:51:00,59.7,49.1,30.03,WNW,298,0.0,18.0,68,0.00,,---,0.00,VWS V13.01,2013-04-25 07:51:00,
2013-04-25 03:56:00,59.4,48.5,30.03,NW,310,0.0,18.0,67,0.00,,---,0.00,VWS V13.01,2013-04-25 07:56:00,
2013-04-25 04:01:00,59.1,48.2,30.03,WNW,293,0.0,18.0,67,0.00,,---,0.00,VWS V13.01,2013-04-25 08:01:00,
2013-04-25 04:06:00,58.8,48.3,30.03,SE,146,0.0,18.0,68,0.00,,---,0.00,VWS V13.01,2013-04-25 08:06:00,
2013-04-25 04:11:00,58.6,48.1,30.05,East,92,0.0,18.0,68,0.00,,---,0.00,VWS V13.01,2013-04-25 08:11:00,
2013-04-25 04:16:00,58.4,48.3,30.05,WNW,297,1.0,18.0,69,0.00,,---,0.00,VWS V13.01,2013-04-25 08:16:00,
2013-04-25 04:21:00,58.2,48.1,30.05,SE,139,0.0,18.0,69,0.00,,---,0.00,VWS V13.01,2013-04-25 08:21:00,
2013-04-25 04:26:00,57.9,47.0,30.05,WNW,297,1.0,18.0,67,0.00,,---,0.00,VWS V13.01,2013-04-25 08:26:00,
2013-04-25 04:31:00,57.7,46.8,30.05,ESE,111,0.0,18.0,67,0.00,,---,0.00,VWS V13.01,2013-04-25 08:31:00,
2013-04-25 04:36:00,57.5,46.6,30.05,NW,322,0.0,18.0,67,0.00,,---,0.00,VWS V13.01,2013-04-25 08:36:00,
2013-04-25 04:41:00,57.3,46.8,30.07,WNW,294,1.0,18.0,68,0.00,,---,0.00,VWS V13.01,2013-04-25 08:41:00,
2013-04-25 04:46:00,57.0,46.2,30.07,WNW,287,0.0,18.0,67,0.00,,---,0.00,VWS V13.01,2013-04-25 08:46:00,
2013-04-25 04:51:00,56.7,46.7,30.07,SSW,207,0.0,18.0,69,0.00,,---,0.00,VWS V13.01,2013-04-25 08:51:00,
2013-04-25 04:56:00,56.2,46.2,30.08,SSW,212,0.0,18.0,69,0.00,,---,0.00,VWS V13.01,2013-04-25 08:56:00,
2013-04-25 05:01:00,55.8,45.8,30.08,SW,221,0.0,18.0,69,0.00,,---,0.00,VWS V13.01,2013-04-25 09:01:00,
2013-04-25 05:06:00,55.7,45.3,30.08,SW,221,3.0,18.0,68,0.00,,---,0.00,VWS V13.01,2013-04-25 09:06:00,
2013-04-25 05:11:00,55.7,44.9,30.09,SW,222,1.0,18.0,67,0.00,,---,0.00,VWS V13.01,2013-04-25 09:11:00,
2013-04-25 05:16:00,55.6,44.8,30.09,NW,311,2.0,18.0,67,0.00,,---,0.00,VWS V13.01,2013-04-25 09:16:00,
2013-04-25 05:21:00,55.6,44.4,30.09,WNW,290,0.0,18.0,66,0.00,,---,0.00,VWS V13.01,2013-04-25 09:21:00,
2013-04-25 05:26:00,55.3,42.9,30.10,NW,307,0.0,18.0,63,0.00,,---,0.00,VWS V13.01,2013-04-25 09:26:00,
2013-04-25 05:31:00,54.9,43.0,30.10,WNW,283,0.0,18.0,64,0.00,,---,0.00,VWS V13.01,2013-04-25 09:31:00,
2013-04-25 05:36:00,54.5,42.2,30.10,ESE,120,1.0,18.0,63,0.00,,---,0.00,VWS V13.01,2013-04-25 09:36:00,
2013-04-25 05:41:00,54.3,42.4,30.12,SE,133,1.0,18.0,64,0.00,,---,0.00,VWS V13.01,2013-04-25 09:41:00,
2013-04-25 05:46:00,54.0,42.5,30.12,SW,233,2.0,18.0,65,0.00,,---,0.00,VWS V13.01,2013-04-25 09:46:00,
2013-04-25 05:51:00,53.7,42.2,30.12,WNW,300,0.0,18.0,65,0.00,,---,0.00,VWS V13.01,2013-04-25 09:51:00,
2013-04-25 05:56:00,53.6,42.1,30.12,WNW,292,0.0,18.0,65,0.00,,---,0.00,VWS V13.01,2013-04-25 09:56:00,
2013-04-25 06:01:00,53.5,42.4,30.12,WNW,291,0.0,18.0,66,0.00,,---,0.00,VWS V13.01,2013-04-25 10:01:00,
2013-04-25 06:06:00,53.4,42.3,30.12,SSW,194,0.0,18.0,66,0.00,,---,0.00,VWS V13.01,2013-04-25 10:06:00,
2013-04-25 06:11:00,53.3,43.0,30.13,SSE,160,0.0,18.0,68,0.00,,---,0.00,VWS V13.01,2013-04-25 10:11:00,
2013-04-25 06:16:00,53.2,42.5,30.13,West,273,0.0,18.0,67,0.00,,---,0.00,VWS V13.01,2013-04-25 10:16:00,
2013-04-25 06:21:00,53.2,42.9,30.13,WNW,298,0.0,18.0,68,0.00,,---,0.00,VWS V13.01,2013-04-25 10:21:00,
2013-04-25 06:26:00,53.1,42.8,30.14,WNW,297,0.0,18.0,68,0.00,,---,0.00,VWS V13.01,2013-04-25 10:26:00,
2013-04-25 06:31:00,53.1,42.8,30.14,South,180,0.0,18.0,68,0.00,,---,0.00,VWS V13.01,2013-04-25 10:31:00,
2013-04-25 06:36:00,53.0,42.3,30.14,WNW,298,2.0,18.0,67,0.00,,---,0.00,VWS V13.01,2013-04-25 10:36:00,
2013-04-25 06:41:00,52.9,42.3,30.15,WNW,297,0.0,18.0,67,0.00,,---,0.00,VWS V13.01,2013-04-25 10:41:00,
2013-04-25 06:46:00,52.8,42.5,30.15,SE,134,0.0,18.0,68,0.00,,---,0.00,VWS V13.01,2013-04-25 10:46:00,
2013-04-25 06:51:00,52.8,41.8,30.15,ESE,121,0.0,18.0,66,0.00,,---,0.00,VWS V13.01,2013-04-25 10:51:00,
2013-04-25 06:56:00,52.7,40.9,30.16,NW,309,0.0,18.0,64,0.00,,---,0.00,VWS V13.01,2013-04-25 10:56:00,
2013-04-25 07:01:00,52.6,41.6,30.16,WNW,285,0.0,18.0,66,0.00,,---,0.00,VWS V13.01,2013-04-25 11:01:00,
2013-04-25 07:06:00,52.6,41.2,30.16,East,88,0.0,18.0,65,0.00,,---,0.00,VWS V13.01,2013-04-25 11:06:00,
2013-04-25 07:11:00,52.6,40.8,30.17,NW,323,0.0,18.0,64,0.00,,---,0.00,VWS V13.01,2013-04-25 11:11:00,
2013-04-25 07:16:00,52.4,41.0,30.17,WNW,301,2.0,18.0,65,0.00,,---,0.00,VWS V13.01,2013-04-25 11:16:00,
2013-04-25 07:21:00,52.2,40.8,30.17,WNW,291,0.0,18.0,65,0.00,,---,0.00,VWS V13.01,2013-04-25 11:21:00,
2013-04-25 07:25:00,51.9,40.9,30.18,SSE,148,0.0,18.0,66,0.00,,---,0.00,VWS V13.01,2013-04-25 11:25:00,
2013-04-25 07:31:00,51.7,41.1,30.18,SSE,148,0.0,18.0,67,0.00,,---,0.00,VWS V13.01,2013-04-25 11:31:00,
2013-04-25 07:35:00,51.5,40.1,30.18,WNW,293,0.0,18.0,65,0.00,,---,0.00,VWS V13.01,2013-04-25 11:35:00,
2013-04-25 07:40:00,51.4,40.8,30.20,WNW,295,0.0,18.0,67,0.00,,---,0.00,VWS V13.01,2013-04-25 11:40:00,
2013-04-25 07:45:00,51.3,40.3,30.20,WNW,297,0.0,18.0,66,0.00,,---,0.00,VWS V13.01,2013-04-25 11:45:00,
2013-04-25 07:50:00,51.3,40.3,30.20,SW,231,0.0,18.0,66,0.00,,---,0.00,VWS V13.01,2013-04-25 11:50:00,
2013-04-25 07:55:00,51.4,39.7,30.20,WSW,241,0.0,18.0,64,0.00,,---,0.00,VWS V13.01,2013-04-25 11:55:00,
2013-04-25 08:00:00,51.5,40.1,30.20,WNW,301,0.0,18.0,65,0.00,,---,0.00,VWS V13.01,2013-04-25 12:00:00,
2013-04-25 08:05:00,51.6,41.0,30.20,WSW,241,0.0,18.0,67,0.00,,---,0.00,VWS V13.01,2013-04-25 12:05:00,
2013-04-25 08:10:00,51.7,40.3,30.20,SW,229,0.0,18.0,65,0.00,,---,0.00,VWS V13.01,2013-04-25 12:10:00,
2013-04-25 08:15:00,51.9,40.9,30.20,SSW,212,0.0,18.0,66,0.00,,---,0.00,VWS V13.01,2013-04-25 12:15:00,
2013-04-25 08:20:00,52.1,40.7,30.20,South,187,0.0,18.0,65,0.00,,---,0.00,VWS V13.01,2013-04-25 12:20:00,
2013-04-25 08:25:00,52.4,41.4,30.20,South,184,0.0,18.0,66,0.00,,---,0.00,VWS V13.01,2013-04-25 12:25:00,
2013-04-25 08:30:00,52.7,41.3,30.20,WNW,285,0.0,18.0,65,0.00,,---,0.00,VWS V13.01,2013-04-25 12:30:00,
2013-04-25 08:35:00,52.6,40.8,30.20,SSE,165,0.0,18.0,64,0.00,,---,0.00,VWS V13.01,2013-04-25 12:35:00,
2013-04-25 08:40:00,52.7,40.1,30.20,WNW,301,0.0,18.0,62,0.00,,---,0.00,VWS V13.01,2013-04-25 12:40:00,
2013-04-25 08:45:00,52.8,39.7,30.20,WNW,292,0.0,18.0,61,0.00,,---,0.00,VWS V13.01,2013-04-25 12:45:00,
2013-04-25 08:50:00,52.9,39.8,30.20,East,79,0.0,18.0,61,0.00,,---,0.00,VWS V13.01,2013-04-25 12:50:00,
2013-04-25 08:55:00,53.1,39.6,30.20,ESE,114,0.0,18.0,60,0.00,,---,0.00,VWS V13.01,2013-04-25 12:55:00,
2013-04-25 09:00:00,53.2,39.7,30.20,NW,305,1.0,18.0,60,0.00,,---,0.00,VWS V13.01,2013-04-25 13:00:00,
2013-04-25 09:05:00,53.4,40.3,30.20,East,101,2.0,18.0,61,0.00,,---,0.00,VWS V13.01,2013-04-25 13:05:00,
2013-04-25 09:10:00,53.8,39.8,30.20,NE,37,1.0,18.0,59,0.00,,---,0.00,VWS V13.01,2013-04-25 13:10:00,
2013-04-25 09:15:00,53.8,38.5,30.20,WNW,300,1.0,18.0,56,0.00,,---,0.00,VWS V13.01,2013-04-25 13:15:00,
2013-04-25 09:20:00,54.3,41.2,30.20,ESE,102,0.0,18.0,61,0.00,,---,0.00,VWS V13.01,2013-04-25 13:20:00,
2013-04-25 09:25:00,55.6,39.7,30.20,ESE,113,0.0,18.0,55,0.00,,---,0.00,VWS V13.01,2013-04-25 13:25:00,
2013-04-25 09:30:00,56.2,40.3,30.20,SE,126,0.0,18.0,55,0.00,,---,0.00,VWS V13.01,2013-04-25 13:30:00,
2013-04-25 09:35:00,56.8,39.9,30.20,West,267,0.0,18.0,53,0.00,,---,0.00,VWS V13.01,2013-04-25 13:35:00,
2013-04-25 09:40:00,57.5,41.0,30.20,ESE,113,1.0,18.0,54,0.00,,---,0.00,VWS V13.01,2013-04-25 13:40:00,
2013-04-25 09:45:00,58.1,41.1,30.20,NW,307,2.0,18.0,53,0.00,,---,0.00,VWS V13.01,2013-04-25 13:45:00,
2013-04-25 09:50:00,58.8,42.7,30.20,SW,233,0.0,18.0,55,0.00,,---,0.00,VWS V13.01,2013-04-25 13:50:00,
2013-04-25 09:55:00,59.2,40.6,30.20,ENE,78,0.0,18.0,50,0.00,,---,0.00,VWS V13.01,2013-04-25 13:55:00,
2013-04-25 10:00:00,60.2,41.5,30.20,WNW,293,0.0,18.0,50,0.00,,---,0.00,VWS V13.01,2013-04-25 14:00:00,
2013-04-25 10:05:00,60.5,42.3,30.20,SE,134,0.0,18.0,51,0.00,,---,0.00,VWS V13.01,2013-04-25 14:05:00,
2013-04-25 10:10:00,60.8,43.1,30.20,South,184,0.0,18.0,52,0.00,,---,0.00,VWS V13.01,2013-04-25 14:10:00,
2013-04-25 10:15:00,61.8,41.9,30.20,SSW,205,0.0,18.0,48,0.00,,---,0.00,VWS V13.01,2013-04-25 14:15:00,
2013-04-25 10:20:00,61.9,42.5,30.20,WNW,300,1.0,18.0,49,0.00,,---,0.00,VWS V13.01,2013-04-25 14:20:00,
2013-04-25 10:25:00,61.5,40.5,30.20,NW,314,0.0,18.0,46,0.00,,---,0.00,VWS V13.01,2013-04-25 14:25:00,
2013-04-25 10:30:00,61.1,42.3,30.20,WSW,256,0.0,18.0,50,0.00,,---,0.00,VWS V13.01,2013-04-25 14:30:00,
2013-04-25 10:35:00,62.1,43.3,30.20,SE,124,0.0,18.0,50,0.00,,---,0.00,VWS V13.01,2013-04-25 14:35:00,
2013-04-25 10:40:00,63.2,44.3,30.20,SE,125,1.0,18.0,50,0.00,,---,0.00,VWS V13.01,2013-04-25 14:40:00,
2013-04-25 10:45:00,63.4,43.9,30.20,WNW,293,0.0,18.0,49,0.00,,---,0.00,VWS V13.01,2013-04-25 14:45:00,
2013-04-25 10:50:00,63.7,42.5,30.20,South,181,2.0,18.0,46,0.00,,---,0.00,VWS V13.01,2013-04-25 14:50:00,
2013-04-25 10:55:00,63.9,42.2,30.20,SSE,147,0.0,18.0,45,0.00,,---,0.00,VWS V13.01,2013-04-25 14:55:00,
2013-04-25 11:00:00,64.1,41.8,30.20,SSE,150,2.0,18.0,44,0.00,,---,0.00,VWS V13.01,2013-04-25 15:00:00,
2013-04-25 11:05:00,63.6,44.1,30.20,ESE,115,1.0,18.0,49,0.00,,---,0.00,VWS V13.01,2013-04-25 15:05:00,
2013-04-25 11:10:00,64.7,42.9,30.20,WSW,240,0.0,18.0,45,0.00,,---,0.00,VWS V13.01,2013-04-25 15:10:00,
2013-04-25 11:15:00,64.7,45.7,30.20,SE,127,2.0,18.0,50,0.00,,---,0.00,VWS V13.01,2013-04-25 15:15:00,
2013-04-25 11:20:00,64.7,45.1,30.20,SE,130,2.0,18.0,49,0.00,,---,0.00,VWS V13.01,2013-04-25 15:20:00,
2013-04-25 11:25:00,66.0,46.8,30.19,SE,131,0.0,18.0,50,0.00,,---,0.00,VWS V13.01,2013-04-25 15:25:00,
2013-04-25 11:30:00,66.7,44.1,30.19,WNW,301,1.0,18.0,44,0.00,,---,0.00,VWS V13.01,2013-04-25 15:30:00,
2013-04-25 11:35:00,66.2,43.7,30.19,WNW,301,1.0,18.0,44,0.00,,---,0.00,VWS V13.01,2013-04-25 15:35:00,
2013-04-25 11:40:00,64.9,44.2,30.20,SW,235,0.0,18.0,47,0.00,,---,0.00,VWS V13.01,2013-04-25 15:40:00,
2013-04-25 11:45:00,66.1,43.6,30.20,SE,144,0.0,18.0,44,0.00,,---,0.00,VWS V13.01,2013-04-25 15:45:00,
2013-04-25 11:50:00,66.7,44.7,30.20,SE,131,0.0,18.0,45,0.00,,---,0.00,VWS V13.01,2013-04-25 15:50:00,
2013-04-25 11:55:00,66.8,43.6,30.19,SW,221,0.0,18.0,43,0.00,,---,0.00,VWS V13.01,2013-04-25 15:55:00,
2013-04-25 12:00:00,68.1,45.4,30.19,NNW,337,0.0,18.0,44,0.00,,---,0.00,VWS V13.01,2013-04-25 16:00:00,
2013-04-25 12:05:00,69.0,48.0,30.19,ESE,102,0.0,18.0,47,0.00,,---,0.00,VWS V13.01,2013-04-25 16:05:00,
2013-04-25 12:10:00,69.1,45.1,30.19,WNW,293,2.0,18.0,42,0.00,,---,0.00,VWS V13.01,2013-04-25 16:10:00,
2013-04-25 12:15:00,68.0,44.7,30.19,NW,314,2.0,18.0,43,0.00,,---,0.00,VWS V13.01,2013-04-25 16:15:00,
2013-04-25 12:20:00,67.9,45.2,30.19,SE,128,1.0,18.0,44,0.00,,---,0.00,VWS V13.01,2013-04-25 16:20:00,
2013-04-25 12:25:00,68.6,48.2,30.19,South,176,0.0,18.0,48,0.00,,---,0.00,VWS V13.01,2013-04-25 16:25:00,
2013-04-25 12:30:00,68.6,45.2,30.19,ESE,121,1.0,18.0,43,0.00,,---,0.00,VWS V13.01,2013-04-25 16:30:00,
2013-04-25 12:35:00,68.5,46.3,30.19,SW,225,0.0,18.0,45,0.00,,---,0.00,VWS V13.01,2013-04-25 16:35:00,
2013-04-25 12:40:00,69.2,47.0,30.19,SSE,166,0.0,18.0,45,0.00,,---,0.00,VWS V13.01,2013-04-25 16:40:00,
2013-04-25 12:45:00,69.9,46.4,30.19,East,100,1.0,18.0,43,0.00,,---,0.00,VWS V13.01,2013-04-25 16:45:00,
2013-04-25 12:50:00,69.9,46.4,30.19,South,179,1.0,18.0,43,0.00,,---,0.00,VWS V13.01,2013-04-25 16:50:00,
2013-04-25 12:55:00,70.6,45.8,30.19,WNW,299,2.0,18.0,41,0.00,,---,0.00,VWS V13.01,2013-04-25 16:55:00,
2013-04-25 13:00:00,69.5,43.5,30.19,WNW,287,1.0,18.0,39,0.00,,---,0.00,VWS V13.01,2013-04-25 17:00:00,
2013-04-25 13:05:00,69.6,44.2,30.19,NW,307,2.0,18.0,40,0.00,,---,0.00,VWS V13.01,2013-04-25 17:05:00,
2013-04-25 13:10:00,69.5,44.2,30.19,South,177,0.0,18.0,40,0.00,,---,0.00,VWS V13.01,2013-04-25 17:10:00,
2013-04-25 13:15:00,69.9,47.0,30.19,ESE,105,0.0,18.0,44,0.00,,---,0.00,VWS V13.01,2013-04-25 17:15:00,
2013-04-25 13:20:00,71.2,45.0,30.19,East,82,0.0,18.0,39,0.00,,---,0.00,VWS V13.01,2013-04-25 17:20:00,
2013-04-25 13:25:00,71.5,47.8,30.19,SSW,203,0.0,18.0,43,0.00,,---,0.00,VWS V13.01,2013-04-25 17:25:00,
2013-04-25 13:30:00,72.4,46.7,30.19,West,259,0.0,18.0,40,0.00,,---,0.00,VWS V13.01,2013-04-25 17:30:00,
2013-04-25 13:35:00,73.0,47.9,30.19,WSW,243,1.0,18.0,41,0.00,,---,0.00,VWS V13.01,2013-04-25 17:35:00,
2013-04-25 13:40:00,72.2,47.9,30.19,ESE,102,1.0,18.0,42,0.00,,---,0.00,VWS V13.01,2013-04-25 17:40:00,
2013-04-25 13:45:00,72.5,48.1,30.19,SSE,160,0.0,18.0,42,0.00,,---,0.00,VWS V13.01,2013-04-25 17:45:00,
2013-04-25 13:50:00,73.2,46.1,30.19,NNW,335,0.0,18.0,38,0.00,,---,0.00,VWS V13.01,2013-04-25 17:50:00,
2013-04-25 13:55:00,72.1,45.1,30.19,WNW,291,0.0,18.0,38,0.00,,---,0.00,VWS V13.01,2013-04-25 17:55:00,
2013-04-25 14:00:00,70.7,47.1,30.19,West,270,0.0,18.0,43,0.00,,---,0.00,VWS V13.01,2013-04-25 18:00:00,
2013-04-25 14:05:00,70.9,44.7,30.19,SSE,148,2.0,18.0,39,0.00,,---,0.00,VWS V13.01,2013-04-25 18:05:00,
2013-04-25 14:10:00,70.8,47.8,30.18,SE,124,0.0,18.0,44,0.00,,---,0.00,VWS V13.01,2013-04-25 18:10:00,
2013-04-25 14:15:00,71.4,45.2,30.18,West,281,0.0,18.0,39,0.00,,---,0.00,VWS V13.01,2013-04-25 18:15:00,
2013-04-25 14:20:00,72.1,46.5,30.18,ESE,105,0.0,18.0,40,0.00,,---,0.00,VWS V13.01,2013-04-25 18:20:00,
2013-04-25 14:25:00,71.6,45.4,30.18,WNW,301,2.0,18.0,39,0.00,,---,0.00,VWS V13.01,2013-04-25 18:25:00,
2013-04-25 14:30:00,71.0,46.1,30.18,West,270,0.0,18.0,41,0.00,,---,0.00,VWS V13.01,2013-04-25 18:30:00,
2013-04-25 14:35:00,72.0,45.0,30.18,ENE,63,0.0,18.0,38,0.00,,---,0.00,VWS V13.01,2013-04-25 18:35:00,
2013-04-25 14:40:00,71.7,44.8,30.18,WNW,297,1.0,18.0,38,0.00,,---,0.00,VWS V13.01,2013-04-25 18:40:00,
2013-04-25 14:45:00,71.7,46.8,30.18,ESE,114,0.0,18.0,41,0.00,,---,0.00,VWS V13.01,2013-04-25 18:45:00,
2013-04-25 14:50:00,72.3,46.0,30.18,ESE,120,0.0,18.0,39,0.00,,---,0.00,VWS V13.01,2013-04-25 18:50:00,
2013-04-25 14:55:00,72.5,47.5,30.18,ESE,112,0.0,18.0,41,0.00,,---,0.00,VWS V13.01,2013-04-25 18:55:00,
2013-04-25 15:00:00,72.3,46.0,30.18,WNW,294,0.0,18.0,39,0.00,,---,0.00,VWS V13.01,2013-04-25 19:00:00,
2013-04-25 15:05:00,72.1,45.1,30.18,East,82,0.0,18.0,38,0.00,,---,0.00,VWS V13.01,2013-04-25 19:05:00,
2013-04-25 15:10:00,72.4,43.2,30.17,WNW,298,2.0,18.0,35,0.00,,---,0.00,VWS V13.01,2013-04-25 19:10:00,
2013-04-25 15:15:00,71.6,44.7,30.17,South,190,0.0,18.0,38,0.00,,---,0.00,VWS V13.01,2013-04-25 19:15:00,
2013-04-25 15:20:00,71.6,43.3,30.17,SW,233,0.0,18.0,36,0.00,,---,0.00,VWS V13.01,2013-04-25 19:20:00,
2013-04-25 15:25:00,71.3,43.7,30.16,SSW,201,1.0,18.0,37,0.00,,---,0.00,VWS V13.01,2013-04-25 19:25:00,
2013-04-25 15:30:00,71.2,46.3,30.16,ESE,113,0.0,18.0,41,0.00,,---,0.00,VWS V13.01,2013-04-25 19:30:00,
2013-04-25 15:35:00,70.6,45.1,30.16,WSW,252,0.0,18.0,40,0.00,,---,0.00,VWS V13.01,2013-04-25 19:35:00,
2013-04-25 15:40:00,70.7,43.2,30.16,SE,141,0.0,18.0,37,0.00,,---,0.00,VWS V13.01,2013-04-25 19:40:00,
2013-04-25 15:45:00,70.4,44.3,30.16,SSW,210,1.0,18.0,39,0.00,,---,0.00,VWS V13.01,2013-04-25 19:45:00,
2013-04-25 15:50:00,70.3,43.5,30.16,NNE,19,0.0,18.0,38,0.00,,---,0.00,VWS V13.01,2013-04-25 19:50:00,
2013-04-25 15:55:00,70.7,45.2,30.16,ESE,114,0.0,18.0,40,0.00,,---,0.00,VWS V13.01,2013-04-25 19:55:00,
2013-04-25 16:00:00,71.4,44.5,30.16,SE,142,1.0,18.0,38,0.00,,---,0.00,VWS V13.01,2013-04-25 20:00:00,
2013-04-25 16:05:00,71.6,46.0,30.16,SE,146,1.0,18.0,40,0.00,,---,0.00,VWS V13.01,2013-04-25 20:05:00,
2013-04-25 16:10:00,71.3,44.4,30.16,WNW,295,2.0,18.0,38,0.00,,---,0.00,VWS V13.01,2013-04-25 20:10:00,
2013-04-25 16:15:00,71.0,42.0,30.16,WNW,298,1.0,18.0,35,0.00,,---,0.00,VWS V13.01,2013-04-25 20:15:00,
2013-04-25 16:20:00,70.5,42.3,30.16,WNW,298,2.0,18.0,36,0.00,,---,0.00,VWS V13.01,2013-04-25 20:20:00,
2013-04-25 16:25:00,70.5,43.7,30.16,WNW,298,0.0,18.0,38,0.00,,---,0.00,VWS V13.01,2013-04-25 20:25:00,
2013-04-25 16:30:00,70.7,43.2,30.16,SE,125,0.0,18.0,37,0.00,,---,0.00,VWS V13.01,2013-04-25 20:30:00,
2013-04-25 16:35:00,70.1,41.2,30.16,WNW,291,0.0,18.0,35,0.00,,---,0.00,VWS V13.01,2013-04-25 20:35:00,
2013-04-25 16:40:00,70.1,43.3,30.15,SSE,166,0.0,18.0,38,0.00,,---,0.00,VWS V13.01,2013-04-25 20:40:00,
2013-04-25 16:45:00,70.2,42.0,30.15,NW,308,2.0,18.0,36,0.00,,---,0.00,VWS V13.01,2013-04-25 20:45:00,
2013-04-25 16:50:00,70.0,41.8,30.15,WSW,240,0.0,18.0,36,0.00,,---,0.00,VWS V13.01,2013-04-25 20:50:00,
2013-04-25 16:55:00,69.6,41.5,30.15,NW,309,0.0,18.0,36,0.00,,---,0.00,VWS V13.01,2013-04-25 20:55:00,
2013-04-25 17:00:00,69.3,39.8,30.15,WSW,238,1.0,18.0,34,0.00,,---,0.00,VWS V13.01,2013-04-25 21:00:00,
2013-04-25 17:05:00,69.2,39.7,30.15,SSW,200,0.0,18.0,34,0.00,,---,0.00,VWS V13.01,2013-04-25 21:05:00,
2013-04-25 17:10:00,69.4,42.7,30.15,SE,128,1.0,18.0,38,0.00,,---,0.00,VWS V13.01,2013-04-25 21:10:00,
2013-04-25 17:15:00,69.1,41.8,30.15,West,281,0.0,18.0,37,0.00,,---,0.00,VWS V13.01,2013-04-25 21:15:00,
2013-04-25 17:20:00,69.3,44.0,30.15,South,170,0.0,18.0,40,0.00,,---,0.00,VWS V13.01,2013-04-25 21:20:00,
2013-04-25 17:25:00,69.6,41.5,30.15,SSW,210,0.0,18.0,36,0.00,,---,0.00,VWS V13.01,2013-04-25 21:25:00,
2013-04-25 17:30:00,69.8,43.1,30.15,SSW,210,0.0,18.0,38,0.00,,---,0.00,VWS V13.01,2013-04-25 21:30:00,
2013-04-25 17:35:00,69.7,43.7,30.15,SSE,167,0.0,18.0,39,0.00,,---,0.00,VWS V13.01,2013-04-25 21:35:00,
2013-04-25 17:40:00,69.6,42.2,30.15,WNW,293,0.0,18.0,37,0.00,,---,0.00,VWS V13.01,2013-04-25 21:40:00,
2013-04-25 17:45:00,69.2,41.1,30.15,WNW,293,0.0,18.0,36,0.00,,---,0.00,VWS V13.01,2013-04-25 21:45:00,
2013-04-25 17:50:00,68.7,42.8,30.15,WNW,293,0.0,18.0,39,0.00,,---,0.00,VWS V13.01,2013-04-25 21:50:00,
2013-04-25 17:55:00,68.6,41.3,30.15,South,179,0.0,18.0,37,0.00,,---,0.00,VWS V13.01,2013-04-25 21:55:00,
2013-04-25 18:00:00,68.6,42.0,30.15,SW,215,0.0,18.0,38,0.00,,---,0.00,VWS V13.01,2013-04-25 22:00:00,
2013-04-25 18:05:00,68.5,43.2,30.15,SSW,212,0.0,18.0,40,0.00,,---,0.00,VWS V13.01,2013-04-25 22:05:00,
2013-04-25 18:10:00,68.4,41.1,30.15,SSW,212,0.0,18.0,37,0.00,,---,0.00,VWS V13.01,2013-04-25 22:10:00,
2013-04-25 18:15:00,68.4,42.5,30.15,SSW,212,0.0,18.0,39,0.00,,---,0.00,VWS V13.01,2013-04-25 22:15:00,
2013-04-25 18:20:00,68.3,40.3,30.15,NW,314,0.0,18.0,36,0.00,,---,0.00,VWS V13.01,2013-04-25 22:20:00,
2013-04-25 18:25:00,67.7,41.9,30.15,NW,311,0.0,18.0,39,0.00,,---,0.00,VWS V13.01,2013-04-25 22:25:00,
2013-04-25 18:30:00,67.5,43.0,30.15,WNW,293,0.0,18.0,41,0.00,,---,0.00,VWS V13.01,2013-04-25 22:30:00,
2013-04-25 18:35:00,67.3,41.5,30.15,SW,232,0.0,18.0,39,0.00,,---,0.00,VWS V13.01,2013-04-25 22:35:00,
2013-04-25 18:40:00,67.1,42.0,30.15,SW,232,0.0,18.0,40,0.00,,---,0.00,VWS V13.01,2013-04-25 22:40:00,
2013-04-25 18:45:00,66.8,43.0,30.15,SW,232,0.0,18.0,42,0.00,,---,0.00,VWS V13.01,2013-04-25 22:45:00,
2013-04-25 18:50:00,66.4,42.0,30.15,SW,232,0.0,18.0,41,0.00,,---,0.00,VWS V13.01,2013-04-25 22:50:00,
2013-04-25 18:55:00,66.1,43.6,30.16,SW,232,0.0,18.0,44,0.00,,---,0.00,VWS V13.01,2013-04-25 22:55:00,
2013-04-25 19:00:00,65.6,46.0,30.16,SW,232,0.0,18.0,49,0.00,,---,0.00,VWS V13.01,2013-04-25 23:00:00,
2013-04-25 19:05:00,65.0,46.5,30.16,SW,232,0.0,18.0,51,0.00,,---,0.00,VWS V13.01,2013-04-25 23:05:00,
2013-04-25 19:10:00,64.3,44.8,30.17,SW,232,0.0,18.0,49,0.00,,---,0.00,VWS V13.01,2013-04-25 23:10:00,
2013-04-25 19:15:00,63.6,45.7,30.17,SW,232,0.0,18.0,52,0.00,,---,0.00,VWS V13.01,2013-04-25 23:15:00,
2013-04-25 19:20:00,63.1,45.2,30.17,SW,232,0.0,18.0,52,0.00,,---,0.00,VWS V13.01,2013-04-25 23:20:00,
2013-04-25 19:25:00,62.5,46.1,30.17,SW,232,0.0,18.0,55,0.00,,---,0.00,VWS V13.01,2013-04-25 23:25:00,
2013-04-25 19:30:00,61.8,46.4,30.17,SW,232,0.0,18.0,57,0.00,,---,0.00,VWS V13.01,2013-04-25 23:30:00,
2013-04-25 19:35:00,61.2,45.9,30.17,SW,232,0.0,18.0,57,0.00,,---,0.00,VWS V13.01,2013-04-25 23:35:00,
2013-04-25 19:40:00,60.6,46.2,30.18,SW,232,0.0,18.0,59,0.00,,---,0.00,VWS V13.01,2013-04-25 23:40:00,
2013-04-25 19:45:00,60.1,45.7,30.18,SW,232,0.0,18.0,59,0.00,,---,0.00,VWS V13.01,2013-04-25 23:45:00,
2013-04-25 19:50:00,59.5,46.1,30.18,SW,232,0.0,18.0,61,0.00,,---,0.00,VWS V13.01,2013-04-25 23:50:00,
2013-04-25 19:55:00,58.9,45.5,30.18,SW,232,0.0,18.0,61,0.00,,---,0.00,VWS V13.01,2013-04-25 23:55:00,
2013-04-25 20:00:00,58.3,45.8,30.18,SW,232,0.0,18.0,63,0.00,,---,0.00,VWS V13.01,2013-04-26 00:00:00,
2013-04-25 20:05:00,57.7,45.6,30.18,SW,232,0.0,18.0,64,0.00,,---,0.00,VWS V13.01,2013-04-26 00:05:00,
2013-04-25 20:10:00,57.1,45.5,30.19,SW,232,0.0,18.0,65,0.00,,---,0.00,VWS V13.01,2013-04-26 00:10:00,
2013-04-25 20:15:00,56.6,45.4,30.19,SW,232,0.0,18.0,66,0.00,,---,0.00,VWS V13.01,2013-04-26 00:15:00,
2013-04-25 20:20:00,55.9,44.3,30.19,SW,232,0.0,18.0,65,0.00,,---,0.00,VWS V13.01,2013-04-26 00:20:00,
2013-04-25 20:25:00,55.4,45.4,30.19,SW,232,0.0,18.0,69,0.00,,---,0.00,VWS V13.01,2013-04-26 00:25:00,
2013-04-25 20:30:00,54.9,45.3,30.19,SW,232,0.0,18.0,70,0.00,,---,0.00,VWS V13.01,2013-04-26 00:30:00,
2013-04-25 20:35:00,54.5,45.7,30.19,SW,232,0.0,18.0,72,0.00,,---,0.00,VWS V13.01,2013-04-26 00:35:00,
2013-04-25 20:40:00,54.0,45.2,30.20,SW,232,0.0,18.0,72,0.00,,---,0.00,VWS V13.01,2013-04-26 00:40:00,
2013-04-25 20:45:00,53.6,45.5,30.20,SW,232,0.0,18.0,74,0.00,,---,0.00,VWS V13.01,2013-04-26 00:45:00,
2013-04-25 20:50:00,53.0,45.3,30.20,SW,232,0.0,18.0,75,0.00,,---,0.00,VWS V13.01,2013-04-26 00:50:00,
2013-04-25 20:55:00,52.6,45.3,30.21,SW,232,0.0,18.0,76,0.00,,---,0.00,VWS V13.01,2013-04-26 00:55:00,
2013-04-25 21:00:00,52.2,45.2,30.21,SW,232,0.0,18.0,77,0.00,,---,0.00,VWS V13.01,2013-04-26 01:00:00,
2013-04-25 21:05:00,51.9,45.6,30.21,SW,232,0.0,18.0,79,0.00,,---,0.00,VWS V13.01,2013-04-26 01:05:00,
2013-04-25 21:10:00,51.5,45.2,30.21,SW,232,0.0,18.0,79,0.00,,---,0.00,VWS V13.01,2013-04-26 01:10:00,
2013-04-25 21:15:00,51.2,45.2,30.21,SW,232,0.0,18.0,80,0.00,,---,0.00,VWS V13.01,2013-04-26 01:15:00,
2013-04-25 21:20:00,50.8,45.2,30.21,SW,232,0.0,18.0,81,0.00,,---,0.00,VWS V13.01,2013-04-26 01:20:00,
2013-04-25 21:25:00,50.5,44.9,30.22,SW,232,0.0,18.0,81,0.00,,---,0.00,VWS V13.01,2013-04-26 01:25:00,
2013-04-25 21:30:00,50.2,44.9,30.22,SW,232,0.0,18.0,82,0.00,,---,0.00,VWS V13.01,2013-04-26 01:30:00,
2013-04-25 21:35:00,49.8,44.8,30.22,SW,232,0.0,18.0,83,0.00,,---,0.00,VWS V13.01,2013-04-26 01:35:00,
2013-04-25 21:40:00,49.5,44.9,30.23,SW,232,0.0,18.0,84,0.00,,---,0.00,VWS V13.01,2013-04-26 01:40:00,
2013-04-25 21:45:00,49.3,44.7,30.23,SW,232,0.0,18.0,84,0.00,,---,0.00,VWS V13.01,2013-04-26 01:45:00,
2013-04-25 21:50:00,49.1,44.8,30.23,SW,232,0.0,18.0,85,0.00,,---,0.00,VWS V13.01,2013-04-26 01:50:00,
2013-04-25 21:55:00,48.8,44.8,30.23,SW,232,0.0,18.0,86,0.00,,---,0.00,VWS V13.01,2013-04-26 01:55:00,
2013-04-25 22:00:00,48.6,44.9,30.23,SW,232,0.0,18.0,87,0.00,,---,0.00,VWS V13.01,2013-04-26 02:00:00,
2013-04-25 22:05:00,48.4,44.7,30.23,SW,232,0.0,18.0,87,0.00,,---,0.00,VWS V13.01,2013-04-26 02:05:00,
2013-04-25 22:10:00,48.1,44.4,30.24,SW,232,0.0,18.0,87,0.00,,---,0.00,VWS V13.01,2013-04-26 02:10:00,
2013-04-25 22:15:00,47.9,44.5,30.24,SW,232,0.0,18.0,88,0.00,,---,0.00,VWS V13.01,2013-04-26 02:15:00,
2013-04-25 22:20:00,47.8,44.7,30.24,SW,232,0.0,18.0,89,0.00,,---,0.00,VWS V13.01,2013-04-26 02:20:00,
2013-04-25 22:25:00,47.6,44.5,30.24,SW,232,0.0,18.0,89,0.00,,---,0.00,VWS V13.01,2013-04-26 02:25:00,
2013-04-25 22:30:00,47.4,44.3,30.24,SW,232,0.0,18.0,89,0.00,,---,0.00,VWS V13.01,2013-04-26 02:30:00,
2013-04-25 22:35:00,47.2,44.1,30.24,SW,232,0.0,18.0,89,0.00,,---,0.00,VWS V13.01,2013-04-26 02:35:00,
2013-04-25 22:40:00,47.0,44.2,30.24,SW,232,0.0,18.0,90,0.00,,---,0.00,VWS V13.01,2013-04-26 02:40:00,
2013-04-25 22:45:00,46.8,44.0,30.24,SW,232,0.0,18.0,90,0.00,,---,0.00,VWS V13.01,2013-04-26 02:45:00,
2013-04-25 22:50:00,46.6,43.8,30.24,SW,232,0.0,18.0,90,0.00,,---,0.00,VWS V13.01,2013-04-26 02:50:00,
2013-04-25 22:55:00,46.5,44.0,30.24,SW,232,0.0,18.0,91,0.00,,---,0.00,VWS V13.01,2013-04-26 02:55:00,
2013-04-25 23:00:00,46.4,43.9,30.24,SW,231,0.0,18.0,91,0.00,,---,0.00,VWS V13.01,2013-04-26 03:00:00,
2013-04-25 23:05:00,46.3,44.1,30.24,SW,232,0.0,18.0,92,0.00,,---,0.00,VWS V13.01,2013-04-26 03:05:00,
2013-04-25 23:10:00,46.3,44.1,30.24,SW,232,0.0,18.0,92,0.00,,---,0.00,VWS V13.01,2013-04-26 03:10:00,
2013-04-25 23:15:00,46.2,44.0,30.24,SW,232,0.0,18.0,92,0.00,,---,0.00,VWS V13.01,2013-04-26 03:15:00,
2013-04-25 23:20:00,46.0,43.8,30.24,SW,232,0.0,18.0,92,0.00,,---,0.00,VWS V13.01,2013-04-26 03:20:00,
2013-04-25 23:25:00,45.9,43.7,30.24,SW,232,0.0,18.0,92,0.00,,---,0.00,VWS V13.01,2013-04-26 03:25:00,
2013-04-25 23:30:00,45.7,43.5,30.24,SW,232,0.0,18.0,92,0.00,,---,0.00,VWS V13.01,2013-04-26 03:30:00,
2013-04-25 23:35:00,45.6,43.4,30.24,SW,232,0.0,18.0,92,0.00,,---,0.00,VWS V13.01,2013-04-26 03:35:00,
2013-04-25 23:40:00,45.5,43.3,30.24,SW,232,0.0,18.0,92,0.00,,---,0.00,VWS V13.01,2013-04-26 03:40:00,
2013-04-25 23:45:00,45.3,43.1,30.24,SW,232,0.0,18.0,92,0.00,,---,0.00,VWS V13.01,2013-04-26 03:45:00,
2013-04-25 23:50:00,45.2,43.0,30.24,SW,232,0.0,18.0,92,0.00,,---,0.00,VWS V13.01,2013-04-26 03:50:00,
2013-04-25 23:55:00,45.2,43.3,30.24,SW,232,0.0,18.0,93,0.00,,---,0.00,VWS V13.01,2013-04-26 03:55:00,